Time;durP1;ratioP1;P1;durP2;ratioP2;P2;SDS_P1;SDS_P2;PMS_P1;PMS_P2;Temp;Humidity;BMP_temperature;BMP_pressure;BME280_temperature;BME280_humidity;BME280_pressure;Samples;Min_cycle;Max_cycle;Signal;HPM_P1;HPM_P2
2021/03/10 00:01:34;;;;;;;32.10;5.70;;;;;;;;;;5040118;28;20029;-57
2021/03/10 00:04:01;;;;;;;38.30;5.43;;;;;;;;;;5047324;28;20199;-57
2021/03/10 00:06:28;;;;;;;43.05;5.65;;;;;;;;;;5049532;28;20044;-58
2021/03/10 00:08:55;;;;;;;24.58;4.38;;;;;;;;;;5030903;28;20047;-58
2021/03/10 00:11:22;;;;;;;31.75;5.55;;;;;;;;;;5049636;28;20433;-55
2021/03/10 00:13:49;;;;;;;25.10;4.00;;;;;;;;;;5050120;28;20033;-56
2021/03/10 00:16:16;;;;;;;36.92;4.55;;;;;;;;;;5049794;28;20071;-55
2021/03/10 00:18:43;;;;;;;31.90;4.80;;;;;;;;;;5050026;28;20126;-57
2021/03/10 00:21:10;;;;;;;31.10;4.32;;;;;;;;;;5031986;28;20017;-58
2021/03/10 00:23:37;;;;;;;27.58;4.63;;;;;;;;;;5045840;28;20021;-57
2021/03/10 00:26:04;;;;;;;20.42;4.10;;;;;;;;;;5047143;28;20060;-56
2021/03/10 00:28:31;;;;;;;38.33;4.30;;;;;;;;;;5022715;28;20067;-57
2021/03/10 00:30:58;;;;;;;35.22;5.05;;;;;;;;;;5047900;28;20029;-55
2021/03/10 00:33:25;;;;;;;17.92;3.95;;;;;;;;;;5041012;28;20492;-57
2021/03/10 00:35:51;;;;;;;21.45;4.15;;;;;;;;;;5031112;28;20021;-58
2021/03/10 00:38:18;;;;;;;27.85;4.80;;;;;;;;;;5043894;28;20029;-58
2021/03/10 00:40:45;;;;;;;24.83;4.22;;;;;;;;;;5039186;28;20029;-58
2021/03/10 00:43:13;;;;;;;18.40;3.63;;;;;;;;;;5035808;28;20021;-59
2021/03/10 00:45:40;;;;;;;26.65;3.85;;;;;;;;;;5042574;28;20099;-58
2021/03/10 00:48:07;;;;;;;19.75;3.13;;;;;;;;;;5044712;28;20104;-58
2021/03/10 00:50:34;;;;;;;22.02;3.83;;;;;;;;;;5045596;28;20025;-58
2021/03/10 00:53:01;;;;;;;20.75;3.63;;;;;;;;;;5034094;28;20034;-57
2021/03/10 00:55:28;;;;;;;27.55;4.35;;;;;;;;;;5033791;28;20552;-58
2021/03/10 00:57:55;;;;;;;22.02;3.72;;;;;;;;;;5033753;28;20102;-58
2021/03/10 01:00:22;;;;;;;25.63;4.10;;;;;;;;;;5052883;28;20017;-55
2021/03/10 01:02:49;;;;;;;21.75;2.97;;;;;;;;;;5035611;28;20059;-56
2021/03/10 01:05:16;;;;;;;19.92;3.60;;;;;;;;;;5052909;28;20028;-59
2021/03/10 01:07:43;;;;;;;20.10;3.30;;;;;;;;;;5049741;28;20037;-59
2021/03/10 01:10:11;;;;;;;30.27;4.32;;;;;;;;;;5043836;28;20036;-54
2021/03/10 01:12:39;;;;;;;21.25;3.75;;;;;;;;;;5026322;28;20059;-55
2021/03/10 01:15:07;;;;;;;16.90;3.70;;;;;;;;;;5051137;28;20024;-58
2021/03/10 01:17:34;;;;;;;25.17;4.05;;;;;;;;;;5051653;28;20017;-51
2021/03/10 01:20:02;;;;;;;23.25;3.35;;;;;;;;;;5028158;28;20103;-58
2021/03/10 01:22:29;;;;;;;17.90;3.75;;;;;;;;;;5052578;28;20143;-59
2021/03/10 01:24:56;;;;;;;24.58;4.15;;;;;;;;;;5052869;28;20483;-59
2021/03/10 01:27:23;;;;;;;32.53;3.67;;;;;;;;;;5051602;28;20036;-59
2021/03/10 01:29:50;;;;;;;19.92;3.00;;;;;;;;;;5039899;28;20021;-58
2021/03/10 01:32:17;;;;;;;24.25;3.63;;;;;;;;;;5052595;28;20107;-59
2021/03/10 01:34:44;;;;;;;19.65;3.25;;;;;;;;;;5052039;28;20025;-56
2021/03/10 01:37:11;;;;;;;15.23;3.13;;;;;;;;;;5052490;28;20033;-59
2021/03/10 01:39:38;;;;;;;16.15;3.10;;;;;;;;;;5052189;28;20029;-56
2021/03/10 01:42:05;;;;;;;25.30;3.50;;;;;;;;;;5052969;28;20021;-53
2021/03/10 01:44:33;;;;;;;15.80;3.03;;;;;;;;;;5052160;28;20025;-62
2021/03/10 01:47:00;;;;;;;23.95;3.42;;;;;;;;;;5040371;28;20116;-55
2021/03/10 01:49:28;;;;;;;23.10;3.70;;;;;;;;;;5051682;28;20491;-52
2021/03/10 01:51:55;;;;;;;21.42;3.25;;;;;;;;;;5051311;28;20074;-56
2021/03/10 01:54:22;;;;;;;20.27;3.03;;;;;;;;;;5052754;28;20108;-55
2021/03/10 01:56:49;;;;;;;22.23;3.20;;;;;;;;;;5051268;28;20104;-51
2021/03/10 01:59:16;;;;;;;21.25;2.97;;;;;;;;;;5043272;28;20139;-56
2021/03/10 02:01:43;;;;;;;20.63;3.10;;;;;;;;;;5038263;28;20043;-50
2021/03/10 02:04:11;;;;;;;14.27;2.85;;;;;;;;;;5015939;28;20405;-54
2021/03/10 02:06:41;;;;;;;15.90;3.20;;;;;;;;;;5030118;28;20453;-52
2021/03/10 02:09:16;;;;;;;18.60;3.17;;;;;;;;;;5052079;28;20087;-51
2021/03/10 02:11:58;;;;;;;17.80;3.25;;;;;;;;;;5052554;28;20096;-50
2021/03/10 02:14:45;;;;;;;29.45;3.53;;;;;;;;;;5022624;28;20112;-49
2021/03/10 02:17:14;;;;;;;11.82;2.88;;;;;;;;;;5039976;28;20025;-49
2021/03/10 02:19:59;;;;;;;14.90;3.08;;;;;;;;;;5051529;28;20067;-54
2021/03/10 02:22:45;;;;;;;10.50;2.40;;;;;;;;;;5046602;28;20029;-49
2021/03/10 02:25:34;;;;;;;11.48;3.15;;;;;;;;;;5042776;28;20024;-51
2021/03/10 02:28:02;;;;;;;21.58;2.70;;;;;;;;;;5001893;28;20485;-51
2021/03/10 02:30:32;;;;;;;22.33;2.92;;;;;;;;;;5034446;28;20017;-48
2021/03/10 02:33:00;;;;;;;15.45;3.53;;;;;;;;;;5034229;28;20020;-48
2021/03/10 02:35:28;;;;;;;13.05;2.88;;;;;;;;;;5052398;28;20092;-53
2021/03/10 02:37:57;;;;;;;15.63;2.72;;;;;;;;;;5051662;28;20025;-52
2021/03/10 02:40:25;;;;;;;17.10;2.92;;;;;;;;;;5051997;28;20106;-54
2021/03/10 02:42:53;;;;;;;19.08;2.75;;;;;;;;;;5051847;28;20039;-54
2021/03/10 02:45:29;;;;;;;19.95;2.88;;;;;;;;;;5051709;28;20036;-49
2021/03/10 02:47:57;;;;;;;13.90;2.95;;;;;;;;;;5024702;28;20033;-47
2021/03/10 02:50:24;;;;;;;13.68;2.63;;;;;;;;;;5049033;28;20545;-47
2021/03/10 02:52:52;;;;;;;17.17;2.97;;;;;;;;;;5051444;28;20446;-49
2021/03/10 02:55:19;;;;;;;17.83;3.70;;;;;;;;;;5047215;28;20025;-50
2021/03/10 02:57:46;;;;;;;16.92;2.92;;;;;;;;;;5051410;28;20032;-50
2021/03/10 03:00:14;;;;;;;16.15;3.53;;;;;;;;;;5050988;28;20024;-47
2021/03/10 03:02:41;;;;;;;16.10;3.60;;;;;;;;;;5051242;28;20055;-52
2021/03/10 03:05:09;;;;;;;16.42;3.50;;;;;;;;;;5051290;28;20036;-45
2021/03/10 03:07:40;;;;;;;12.48;3.03;;;;;;;;;;5050880;28;20057;-50
2021/03/10 03:10:08;;;;;;;12.77;2.65;;;;;;;;;;5051496;28;20436;-48
2021/03/10 03:12:36;;;;;;;16.60;2.92;;;;;;;;;;5050819;28;20124;-47
2021/03/10 03:15:05;;;;;;;15.98;2.60;;;;;;;;;;5050690;28;20013;-50
2021/03/10 03:17:32;;;;;;;12.40;2.58;;;;;;;;;;5050361;28;20023;-48
2021/03/10 03:19:59;;;;;;;20.15;2.47;;;;;;;;;;5051175;28;20047;-47
2021/03/10 03:22:26;;;;;;;16.67;3.40;;;;;;;;;;5050897;28;20465;-46
2021/03/10 03:24:54;;;;;;;14.95;2.50;;;;;;;;;;5047781;28;20028;-52
2021/03/10 03:27:27;;;;;;;13.48;2.85;;;;;;;;;;5050490;28;20060;-47
2021/03/10 03:29:59;;;;;;;12.85;2.58;;;;;;;;;;5051061;28;20469;-54
2021/03/10 03:32:32;;;;;;;19.30;2.83;;;;;;;;;;5051158;28;20075;-55
2021/03/10 03:34:59;;;;;;;12.02;2.78;;;;;;;;;;5051732;28;20021;-54
2021/03/10 03:37:27;;;;;;;11.68;2.75;;;;;;;;;;5051560;28;20017;-53
2021/03/10 03:39:54;;;;;;;14.90;2.67;;;;;;;;;;5033447;28;20388;-50
2021/03/10 03:42:21;;;;;;;14.18;2.63;;;;;;;;;;5051968;28;20033;-53
2021/03/10 03:44:49;;;;;;;17.95;2.22;;;;;;;;;;5050777;28;20033;-54
2021/03/10 03:47:17;;;;;;;15.60;2.67;;;;;;;;;;5051146;28;20162;-51
2021/03/10 03:49:46;;;;;;;18.60;2.92;;;;;;;;;;5051431;28;20044;-51
2021/03/10 03:52:13;;;;;;;14.30;2.97;;;;;;;;;;5051420;28;20552;-49
2021/03/10 03:54:40;;;;;;;17.02;2.88;;;;;;;;;;5051176;28;20066;-51
2021/03/10 03:57:08;;;;;;;11.70;2.50;;;;;;;;;;5033615;28;20021;-51
2021/03/10 03:59:36;;;;;;;17.90;2.75;;;;;;;;;;5048433;28;20143;-54
2021/03/10 04:02:03;;;;;;;14.95;2.30;;;;;;;;;;5051239;28;20104;-55
2021/03/10 04:04:30;;;;;;;13.70;3.05;;;;;;;;;;5049010;28;20032;-54
2021/03/10 04:06:57;;;;;;;22.45;2.92;;;;;;;;;;5050129;28;20128;-54
2021/03/10 04:09:24;;;;;;;15.52;2.42;;;;;;;;;;5051421;28;20029;-53
2021/03/10 04:11:51;;;;;;;14.18;2.22;;;;;;;;;;5051543;28;20033;-49
2021/03/10 04:14:19;;;;;;;16.77;3.15;;;;;;;;;;5055421;28;20465;-53
2021/03/10 04:16:47;;;;;;;15.52;2.25;;;;;;;;;;5054660;28;20044;-55
2021/03/10 04:19:14;;;;;;;15.27;2.67;;;;;;;;;;5054914;28;20045;-53
2021/03/10 04:21:41;;;;;;;11.20;2.47;;;;;;;;;;5054755;28;20046;-48
2021/03/10 04:24:08;;;;;;;8.18;2.15;;;;;;;;;;5054868;28;20048;-54
2021/03/10 04:26:35;;;;;;;11.15;2.20;;;;;;;;;;5054821;28;20044;-56
2021/03/10 04:29:02;;;;;;;15.75;2.67;;;;;;;;;;5054769;28;20017;-55
2021/03/10 04:31:29;;;;;;;15.45;2.90;;;;;;;;;;5055181;28;20029;-54
2021/03/10 04:33:56;;;;;;;12.25;2.47;;;;;;;;;;5036652;28;20381;-50
2021/03/10 04:36:23;;;;;;;13.48;2.38;;;;;;;;;;5037197;28;20496;-55
2021/03/10 04:38:50;;;;;;;12.10;2.30;;;;;;;;;;5054509;28;20062;-52
2021/03/10 04:41:17;;;;;;;13.15;2.58;;;;;;;;;;5054890;28;20050;-49
2021/03/10 04:43:44;;;;;;;11.57;2.63;;;;;;;;;;5054310;28;20369;-53
2021/03/10 04:46:11;;;;;;;14.07;2.30;;;;;;;;;;5054898;28;20032;-51
2021/03/10 04:48:38;;;;;;;16.08;2.80;;;;;;;;;;5054185;28;20024;-52
2021/03/10 04:51:05;;;;;;;9.70;2.40;;;;;;;;;;5054923;28;20419;-49
2021/03/10 04:53:32;;;;;;;13.18;2.78;;;;;;;;;;5053953;28;20029;-52
2021/03/10 04:55:59;;;;;;;18.65;3.33;;;;;;;;;;5054511;28;20455;-51
2021/03/10 04:58:26;;;;;;;12.52;2.20;;;;;;;;;;5054338;28;20021;-49
2021/03/10 05:00:53;;;;;;;13.80;2.70;;;;;;;;;;5054413;28;20032;-52
2021/03/10 05:03:20;;;;;;;14.43;3.13;;;;;;;;;;5053794;28;20554;-48
2021/03/10 05:05:47;;;;;;;16.33;3.03;;;;;;;;;;5054639;28;20106;-50
2021/03/10 05:08:14;;;;;;;13.80;3.03;;;;;;;;;;5054475;28;20017;-49
2021/03/10 05:10:41;;;;;;;17.98;2.80;;;;;;;;;;5053857;28;20040;-52
2021/03/10 05:13:08;;;;;;;14.57;3.15;;;;;;;;;;5054364;28;20049;-48
2021/03/10 05:15:35;;;;;;;15.52;2.67;;;;;;;;;;5053659;28;20028;-46
2021/03/10 05:18:02;;;;;;;16.45;3.22;;;;;;;;;;5035876;28;20124;-48
2021/03/10 05:20:29;;;;;;;13.80;2.88;;;;;;;;;;5053951;28;20029;-49
2021/03/10 05:22:56;;;;;;;15.27;2.95;;;;;;;;;;5053938;28;20048;-49
2021/03/10 05:25:23;;;;;;;17.75;3.00;;;;;;;;;;5053589;28;20128;-54
2021/03/10 05:27:50;;;;;;;17.92;3.08;;;;;;;;;;5036260;28;20025;-52
2021/03/10 05:30:17;;;;;;;18.20;2.95;;;;;;;;;;5053519;28;20411;-54
2021/03/10 05:32:44;;;;;;;16.95;3.08;;;;;;;;;;5053659;28;20435;-53
2021/03/10 05:35:11;;;;;;;13.70;3.38;;;;;;;;;;5053818;28;20388;-53
2021/03/10 05:37:38;;;;;;;19.67;2.80;;;;;;;;;;5054000;28;20036;-48
2021/03/10 05:40:06;;;;;;;21.55;3.35;;;;;;;;;;5053375;28;20373;-52
2021/03/10 05:42:33;;;;;;;21.63;3.08;;;;;;;;;;5053948;28;20036;-48
2021/03/10 05:45:01;;;;;;;20.60;2.75;;;;;;;;;;5053309;28;20017;-47
2021/03/10 05:47:27;;;;;;;19.75;3.65;;;;;;;;;;5035408;28;20021;-50
2021/03/10 05:49:54;;;;;;;16.20;2.72;;;;;;;;;;5053801;28;20017;-45
2021/03/10 05:52:23;;;;;;;13.98;3.08;;;;;;;;;;5053311;28;20039;-47
2021/03/10 05:54:51;;;;;;;23.58;3.28;;;;;;;;;;5053391;28;20036;-49
2021/03/10 05:57:21;;;;;;;20.67;3.42;;;;;;;;;;5053024;28;20017;-47
2021/03/10 05:59:48;;;;;;;22.35;3.67;;;;;;;;;;5053656;28;20028;-47
2021/03/10 06:02:15;;;;;;;14.75;2.95;;;;;;;;;;5052830;28;20373;-53
2021/03/10 06:04:43;;;;;;;18.13;3.20;;;;;;;;;;5053110;28;20025;-54
2021/03/10 06:07:20;;;;;;;23.27;3.13;;;;;;;;;;5052941;28;20037;-53
2021/03/10 06:10:04;;;;;;;20.30;3.25;;;;;;;;;;5053432;28;20025;-54
2021/03/10 06:12:47;;;;;;;14.50;3.22;;;;;;;;;;5052839;28;20035;-53
2021/03/10 06:15:14;;;;;;;19.35;2.63;;;;;;;;;;5052953;28;20024;-54
2021/03/10 06:17:46;;;;;;;21.80;3.25;;;;;;;;;;5052492;28;20110;-52
2021/03/10 06:20:26;;;;;;;13.57;3.78;;;;;;;;;;5053052;28;20064;-53
2021/03/10 06:22:53;;;;;;;12.07;2.55;;;;;;;;;;5052800;28;20060;-53
2021/03/10 06:25:21;;;;;;;15.85;3.40;;;;;;;;;;5052405;28;20029;-52
2021/03/10 06:27:55;;;;;;;16.65;2.67;;;;;;;;;;5052656;28;20032;-53
2021/03/10 06:30:32;;;;;;;20.50;3.22;;;;;;;;;;5053061;28;20020;-55
2021/03/10 06:32:59;;;;;;;28.23;2.92;;;;;;;;;;5052447;28;20159;-52
2021/03/10 06:35:27;;;;;;;18.83;3.30;;;;;;;;;;5052330;28;20020;-54
2021/03/10 06:38:06;;;;;;;21.45;2.88;;;;;;;;;;5052001;28;20017;-50
2021/03/10 06:40:33;;;;;;;26.42;3.25;;;;;;;;;;5052809;28;20021;-52
2021/03/10 06:43:01;;;;;;;16.48;2.47;;;;;;;;;;5052223;28;20013;-54
2021/03/10 06:45:34;;;;;;;15.73;2.72;;;;;;;;;;5052350;28;20013;-54
2021/03/10 06:48:01;;;;;;;16.90;3.20;;;;;;;;;;5052152;28;20112;-53
2021/03/10 06:50:35;;;;;;;20.58;2.97;;;;;;;;;;5052324;28;20071;-53
2021/03/10 06:53:02;;;;;;;20.40;3.53;;;;;;;;;;5052284;28;20075;-51
2021/03/10 06:55:39;;;;;;;17.10;2.75;;;;;;;;;;5034377;28;20053;-54
2021/03/10 06:58:06;;;;;;;21.73;2.75;;;;;;;;;;5052449;28;20215;-50
2021/03/10 07:00:33;;;;;;;23.13;3.00;;;;;;;;;;5052152;28;20037;-53
2021/03/10 07:03:01;;;;;;;18.05;3.20;;;;;;;;;;5052374;28;20029;-48
2021/03/10 07:05:29;;;;;;;17.45;3.47;;;;;;;;;;5051482;28;20028;-52
2021/03/10 07:07:56;;;;;;;20.63;3.05;;;;;;;;;;5034330;28;20039;-53
2021/03/10 07:10:26;;;;;;;26.50;2.90;;;;;;;;;;5051910;28;20089;-53
2021/03/10 07:12:56;;;;;;;17.75;3.55;;;;;;;;;;5052153;28;20025;-53
2021/03/10 07:15:23;;;;;;;22.73;3.35;;;;;;;;;;5051267;28;20029;-52
2021/03/10 07:17:50;;;;;;;15.07;2.90;;;;;;;;;;5051764;28;20021;-51
2021/03/10 07:20:18;;;;;;;22.85;3.15;;;;;;;;;;5033709;28;20021;-51
2021/03/10 07:22:56;;;;;;;17.58;3.28;;;;;;;;;;5052185;28;20048;-51
2021/03/10 07:25:31;;;;;;;16.90;3.05;;;;;;;;;;5051259;28;20029;-48
2021/03/10 07:28:07;;;;;;;20.52;3.03;;;;;;;;;;5051877;28;20036;-49
2021/03/10 07:30:38;;;;;;;19.42;2.75;;;;;;;;;;5051636;28;20047;-54
2021/03/10 07:33:06;;;;;;;13.05;3.15;;;;;;;;;;5034021;28;20465;-51
2021/03/10 07:35:33;;;;;;;22.92;3.60;;;;;;;;;;5051077;28;20017;-53
2021/03/10 07:38:00;;;;;;;11.60;2.53;;;;;;;;;;5051913;28;20104;-51
2021/03/10 07:40:26;;;;;;;20.23;2.63;;;;;;;;;;5051321;28;20088;-46
2021/03/10 07:42:55;;;;;;;19.63;3.05;;;;;;;;;;5051601;28;20021;-49
2021/03/10 07:45:29;;;;;;;14.45;3.00;;;;;;;;;;5051569;28;20061;-47
2021/03/10 07:47:59;;;;;;;16.73;2.72;;;;;;;;;;5054450;28;20491;-55
2021/03/10 07:50:38;;;;;;;27.58;3.17;;;;;;;;;;5056009;28;20473;-53
2021/03/10 07:53:05;;;;;;;20.63;3.00;;;;;;;;;;5055432;28;20071;-52
2021/03/10 07:55:41;;;;;;;25.65;3.58;;;;;;;;;;5055415;28;20373;-52
2021/03/10 07:58:09;;;;;;;16.85;2.38;;;;;;;;;;5055461;28;20082;-54
2021/03/10 08:00:36;;;;;;;25.05;3.10;;;;;;;;;;5055841;28;20444;-55
2021/03/10 08:03:04;;;;;;;18.75;3.47;;;;;;;;;;5055253;28;20032;-53
2021/03/10 08:05:32;;;;;;;19.55;2.72;;;;;;;;;;5055576;28;20036;-55
2021/03/10 08:08:08;;;;;;;16.63;3.08;;;;;;;;;;5054973;28;20487;-54
2021/03/10 08:10:36;;;;;;;17.33;3.25;;;;;;;;;;5055457;28;20392;-54
2021/03/10 08:13:23;;;;;;;21.88;3.42;;;;;;;;;;5054874;28;20017;-54
2021/03/10 08:15:50;;;;;;;22.42;2.67;;;;;;;;;;5055169;28;20021;-52
2021/03/10 08:18:22;;;;;;;18.33;3.17;;;;;;;;;;5054813;28;20396;-53
2021/03/10 08:20:49;;;;;;;13.52;3.35;;;;;;;;;;5055153;28;20029;-53
2021/03/10 08:23:16;;;;;;;20.50;3.13;;;;;;;;;;5054815;28;20029;-52
2021/03/10 08:25:51;;;;;;;22.55;2.95;;;;;;;;;;5055078;28;20025;-50
2021/03/10 08:28:18;;;;;;;21.65;3.78;;;;;;;;;;5054916;28;20477;-51
2021/03/10 08:30:45;;;;;;;27.58;4.00;;;;;;;;;;5037339;28;20009;-54
2021/03/10 08:33:12;;;;;;;24.80;3.08;;;;;;;;;;5054975;28;20036;-53
2021/03/10 08:36:00;;;;;;;20.35;2.78;;;;;;;;;;5054957;28;20045;-54
2021/03/10 08:38:31;;;;;;;16.48;3.67;;;;;;;;;;5054893;28;20033;-55
2021/03/10 08:41:03;;;;;;;17.83;3.05;;;;;;;;;;5055044;28;20013;-53
2021/03/10 08:43:30;;;;;;;26.15;3.47;;;;;;;;;;5054525;28;20552;-54
2021/03/10 08:45:57;;;;;;;19.10;3.17;;;;;;;;;;5054416;28;20037;-54
2021/03/10 08:48:25;;;;;;;16.92;2.90;;;;;;;;;;5054407;28;20029;-52
2021/03/10 08:50:52;;;;;;;18.95;3.13;;;;;;;;;;5054913;28;20021;-55
2021/03/10 08:53:19;;;;;;;25.35;3.50;;;;;;;;;;5054830;28;20032;-52
2021/03/10 08:55:46;;;;;;;19.13;2.97;;;;;;;;;;5054291;28;20088;-52
2021/03/10 08:58:13;;;;;;;17.63;3.25;;;;;;;;;;5054101;28;20036;-50
2021/03/10 09:00:41;;;;;;;19.27;3.10;;;;;;;;;;5054039;28;20104;-53
2021/03/10 09:03:12;;;;;;;16.60;3.17;;;;;;;;;;5037142;28;20025;-49
2021/03/10 09:05:39;;;;;;;17.80;3.50;;;;;;;;;;5053988;28;20029;-54
2021/03/10 09:08:07;;;;;;;25.10;3.92;;;;;;;;;;5054242;28;20108;-48
2021/03/10 09:10:35;;;;;;;22.00;3.03;;;;;;;;;;5054128;28;20484;-52
2021/03/10 09:13:03;;;;;;;20.80;3.05;;;;;;;;;;5054323;28;20586;-53
2021/03/10 09:15:31;;;;;;;11.27;2.55;;;;;;;;;;5053660;28;20036;-52
2021/03/10 09:18:02;;;;;;;21.48;3.58;;;;;;;;;;5053986;28;20017;-51
2021/03/10 09:20:39;;;;;;;16.33;2.88;;;;;;;;;;5053896;28;20078;-52
2021/03/10 09:23:06;;;;;;;21.45;2.85;;;;;;;;;;5054287;28;20048;-54
2021/03/10 09:25:34;;;;;;;23.13;3.00;;;;;;;;;;5053513;28;20035;-52
2021/03/10 09:28:02;;;;;;;24.95;3.63;;;;;;;;;;5053666;28;20021;-49
2021/03/10 09:30:30;;;;;;;18.67;3.40;;;;;;;;;;5053688;28;20049;-52
2021/03/10 09:32:57;;;;;;;15.02;2.50;;;;;;;;;;5053975;28;20607;-54
2021/03/10 09:35:24;;;;;;;14.77;2.90;;;;;;;;;;5053961;28;20025;-49
2021/03/10 09:37:51;;;;;;;28.38;3.20;;;;;;;;;;5053173;28;20060;-52
2021/03/10 09:40:20;;;;;;;28.92;4.05;;;;;;;;;;5053895;28;20021;-50
2021/03/10 09:42:56;;;;;;;17.75;2.70;;;;;;;;;;5053148;28;20021;-49
2021/03/10 09:45:27;;;;;;;17.20;3.03;;;;;;;;;;5053905;28;20043;-54
2021/03/10 09:47:54;;;;;;;22.77;3.58;;;;;;;;;;5052964;28;20037;-51
2021/03/10 09:50:28;;;;;;;19.48;3.10;;;;;;;;;;5053709;28;20025;-51
2021/03/10 09:52:56;;;;;;;20.75;3.35;;;;;;;;;;5053260;28;20025;-50
2021/03/10 09:55:24;;;;;;;23.13;3.13;;;;;;;;;;5053633;28;20032;-52
2021/03/10 09:58:01;;;;;;;24.42;3.05;;;;;;;;;;5052826;28;20448;-51
2021/03/10 10:00:28;;;;;;;17.85;3.13;;;;;;;;;;5035613;28;20017;-52
2021/03/10 10:02:55;;;;;;;23.58;3.42;;;;;;;;;;5053259;28;20079;-51
2021/03/10 10:05:27;;;;;;;21.65;2.92;;;;;;;;;;5053399;28;20354;-51
2021/03/10 10:07:55;;;;;;;26.60;3.75;;;;;;;;;;5034610;28;20388;-51
2021/03/10 10:10:23;;;;;;;19.63;3.60;;;;;;;;;;5052549;28;20480;-49
2021/03/10 10:12:50;;;;;;;17.52;2.92;;;;;;;;;;5052893;28;20033;-50
2021/03/10 10:15:19;;;;;;;21.85;3.47;;;;;;;;;;5049140;28;20507;-48
2021/03/10 10:17:56;;;;;;;30.00;4.38;;;;;;;;;;5040739;28;20107;-49
2021/03/10 10:20:24;;;;;;;36.63;4.25;;;;;;;;;;5032999;28;20108;-49
2021/03/10 10:22:51;;;;;;;23.92;3.05;;;;;;;;;;5014987;28;20060;-52
2021/03/10 10:25:19;;;;;;;28.35;3.78;;;;;;;;;;5032923;28;20088;-52
2021/03/10 10:27:50;;;;;;;30.35;4.25;;;;;;;;;;5015308;28;20812;-48
2021/03/10 10:30:19;;;;;;;34.17;4.03;;;;;;;;;;5031907;28;20017;-49
2021/03/10 10:32:47;;;;;;;24.63;3.10;;;;;;;;;;5031161;28;20116;-46
2021/03/10 10:35:15;;;;;;;24.33;3.42;;;;;;;;;;5030567;28;20457;-49
2021/03/10 10:37:42;;;;;;;36.00;4.32;;;;;;;;;;5031067;28;20029;-48
2021/03/10 10:40:11;;;;;;;48.55;5.00;;;;;;;;;;5030698;28;20524;-45
2021/03/10 10:42:38;;;;;;;35.85;4.05;;;;;;;;;;5030910;28;20029;-46
2021/03/10 10:45:06;;;;;;;25.25;3.42;;;;;;;;;;5031265;28;20424;-47
2021/03/10 10:47:33;;;;;;;25.85;3.88;;;;;;;;;;5032487;28;20512;-48
2021/03/10 10:50:03;;;;;;;27.02;4.03;;;;;;;;;;5014079;28;20492;-48
2021/03/10 10:52:30;;;;;;;29.40;4.43;;;;;;;;;;5032654;28;20021;-47
2021/03/10 10:54:57;;;;;;;39.13;4.28;;;;;;;;;;5032122;28;20025;-48
2021/03/10 10:57:24;;;;;;;44.03;4.93;;;;;;;;;;5032401;28;20056;-49
2021/03/10 10:59:51;;;;;;;30.17;4.38;;;;;;;;;;5031728;28;20032;-48
2021/03/10 11:02:18;;;;;;;41.03;4.10;;;;;;;;;;5015026;28;20108;-51
2021/03/10 11:04:45;;;;;;;53.00;4.68;;;;;;;;;;5031641;28;20156;-48
2021/03/10 11:07:12;;;;;;;46.85;5.70;;;;;;;;;;5032125;28;20116;-51
2021/03/10 11:09:40;;;;;;;52.58;5.60;;;;;;;;;;5032133;28;20025;-52
2021/03/10 11:12:12;;;;;;;32.15;4.00;;;;;;;;;;5031697;28;20056;-47
2021/03/10 11:14:40;;;;;;;33.13;4.72;;;;;;;;;;5031972;28;20027;-49
2021/03/10 11:17:07;;;;;;;29.08;3.72;;;;;;;;;;5031525;28;20032;-54
2021/03/10 11:19:38;;;;;;;32.42;4.03;;;;;;;;;;5031638;28;20493;-53
2021/03/10 11:22:07;;;;;;;56.65;4.88;;;;;;;;;;5013727;28;20409;-54
2021/03/10 11:24:34;;;;;;;36.88;4.78;;;;;;;;;;5032071;28;20553;-54
2021/03/10 11:27:02;;;;;;;45.42;5.05;;;;;;;;;;5031490;28;20072;-50
2021/03/10 11:29:29;;;;;;;40.90;4.90;;;;;;;;;;5031815;28;20060;-54
2021/03/10 11:31:56;;;;;;;59.90;5.88;;;;;;;;;;5031168;28;20021;-53
2021/03/10 11:34:24;;;;;;;34.92;4.32;;;;;;;;;;5031963;28;20021;-54
2021/03/10 11:36:51;;;;;;;43.53;5.22;;;;;;;;;;5031268;28;20037;-49
2021/03/10 11:39:19;;;;;;;47.67;5.70;;;;;;;;;;5031609;28;20057;-55
2021/03/10 11:41:45;;;;;;;37.47;4.68;;;;;;;;;;5032447;28;20072;-52
2021/03/10 11:44:13;;;;;;;50.33;5.18;;;;;;;;;;5031662;28;20485;-52
2021/03/10 11:46:40;;;;;;;42.38;4.20;;;;;;;;;;5014381;28;20029;-50
2021/03/10 11:49:07;;;;;;;39.25;3.95;;;;;;;;;;5031669;28;20032;-48
2021/03/10 11:51:34;;;;;;;42.75;4.90;;;;;;;;;;5032308;28;20472;-51
2021/03/10 11:54:02;;;;;;;36.75;4.85;;;;;;;;;;5031672;28;20420;-52
2021/03/10 11:56:29;;;;;;;33.38;4.28;;;;;;;;;;5032446;28;20083;-48
2021/03/10 11:58:57;;;;;;;45.72;6.22;;;;;;;;;;5031888;28;20389;-47
2021/03/10 12:01:27;;;;;;;44.63;5.20;;;;;;;;;;5031359;28;20478;-51
2021/03/10 12:03:54;;;;;;;45.90;5.50;;;;;;;;;;5031836;28;20424;-46
2021/03/10 12:06:21;;;;;;;41.25;5.00;;;;;;;;;;5042222;28;20064;-50
2021/03/10 12:08:48;;;;;;;46.65;4.82;;;;;;;;;;5031464;28;20021;-51
2021/03/10 12:11:15;;;;;;;42.15;5.38;;;;;;;;;;5030974;28;20025;-53
2021/03/10 12:13:41;;;;;;;39.60;4.75;;;;;;;;;;5031453;28;20028;-51
2021/03/10 12:16:10;;;;;;;43.72;5.05;;;;;;;;;;5030737;28;20420;-52
2021/03/10 12:18:38;;;;;;;30.42;3.78;;;;;;;;;;5031317;28;20045;-50
2021/03/10 12:21:05;;;;;;;41.83;5.22;;;;;;;;;;5030956;28;20029;-49
2021/03/10 12:23:32;;;;;;;46.38;4.70;;;;;;;;;;5031507;28;20489;-53
2021/03/10 12:25:59;;;;;;;50.85;5.82;;;;;;;;;;5031477;28;20125;-51
2021/03/10 12:28:26;;;;;;;49.85;5.18;;;;;;;;;;5013345;28;20440;-52
2021/03/10 12:30:53;;;;;;;38.67;4.63;;;;;;;;;;5031062;28;20025;-48
2021/03/10 12:33:21;;;;;;;64.88;6.47;;;;;;;;;;5018533;28;20465;-51
2021/03/10 12:35:48;;;;;;;59.28;5.95;;;;;;;;;;5054874;28;20029;-50
2021/03/10 12:38:15;;;;;;;50.58;5.53;;;;;;;;;;5053639;28;20035;-54
2021/03/10 12:40:42;;;;;;;44.45;5.95;;;;;;;;;;5054206;28;20032;-52
2021/03/10 12:43:09;;;;;;;45.15;5.60;;;;;;;;;;5051453;28;20091;-52
2021/03/10 12:45:36;;;;;;;48.75;5.28;;;;;;;;;;5036211;28;20033;-50
2021/03/10 12:48:03;;;;;;;41.08;4.95;;;;;;;;;;5054056;28;20443;-51
2021/03/10 12:50:30;;;;;;;52.20;6.00;;;;;;;;;;5054143;28;20074;-52
2021/03/10 12:52:57;;;;;;;41.58;5.13;;;;;;;;;;5054025;28;20056;-54
2021/03/10 12:55:24;;;;;;;49.53;5.03;;;;;;;;;;5054077;28;20398;-54
2021/03/10 12:57:51;;;;;;;34.72;4.13;;;;;;;;;;5046051;28;20405;-59
2021/03/10 13:00:18;;;;;;;53.38;5.10;;;;;;;;;;5052154;28;20017;-54
2021/03/10 13:02:48;;;;;;;55.10;6.22;;;;;;;;;;5052962;28;20083;-53
2021/03/10 13:05:15;;;;;;;58.20;5.05;;;;;;;;;;5053535;28;20017;-58
2021/03/10 13:07:43;;;;;;;45.60;5.20;;;;;;;;;;5049561;28;20094;-53
2021/03/10 13:10:10;;;;;;;43.70;5.70;;;;;;;;;;5041281;28;20097;-58
2021/03/10 13:12:37;;;;;;;57.58;5.93;;;;;;;;;;5052769;28;20086;-57
2021/03/10 13:15:05;;;;;;;49.00;5.13;;;;;;;;;;5018899;28;20476;-55
2021/03/10 13:17:32;;;;;;;48.80;6.07;;;;;;;;;;5035037;28;20534;-54
2021/03/10 13:19:59;;;;;;;51.47;5.20;;;;;;;;;;5052200;28;20045;-58
2021/03/10 13:22:26;;;;;;;57.78;6.95;;;;;;;;;;5053094;28;20021;-58
2021/03/10 13:24:54;;;;;;;96.82;8.65;;;;;;;;;;5052515;28;20082;-52
2021/03/10 13:27:22;;;;;;;73.57;8.18;;;;;;;;;;5053259;28;20517;-54
2021/03/10 13:29:51;;;;;;;81.22;7.65;;;;;;;;;;5053018;28;20392;-58
2021/03/10 13:32:18;;;;;;;50.83;7.28;;;;;;;;;;5053294;28;20453;-55
2021/03/10 13:34:45;;;;;;;69.25;8.43;;;;;;;;;;5035852;28;20159;-55
2021/03/10 13:37:12;;;;;;;58.33;7.60;;;;;;;;;;5050280;28;20015;-52
2021/03/10 13:39:39;;;;;;;71.50;7.38;;;;;;;;;;5050523;28;20021;-59
2021/03/10 13:42:06;;;;;;;62.47;7.70;;;;;;;;;;5052200;28;20056;-53
2021/03/10 13:44:33;;;;;;;78.45;8.52;;;;;;;;;;5052016;28;20024;-55
2021/03/10 13:47:00;;;;;;;55.42;6.20;;;;;;;;;;5052753;28;20064;-54
2021/03/10 13:49:27;;;;;;;58.17;6.63;;;;;;;;;;5053210;28;20031;-52
2021/03/10 13:51:55;;;;;;;62.63;7.03;;;;;;;;;;5052605;28;20108;-56
2021/03/10 13:54:22;;;;;;;113.72;10.90;;;;;;;;;;5052964;28;20017;-56
2021/03/10 13:56:49;;;;;;;85.07;8.80;;;;;;;;;;5049924;28;20051;-56
2021/03/10 13:59:16;;;;;;;80.68;8.93;;;;;;;;;;5052900;28;20113;-55
2021/03/10 14:01:43;;;;;;;74.82;7.55;;;;;;;;;;5052645;28;20068;-51
2021/03/10 14:04:10;;;;;;;48.90;5.80;;;;;;;;;;5052910;28;20028;-57
2021/03/10 14:06:37;;;;;;;62.83;6.63;;;;;;;;;;5052560;28;20041;-57
2021/03/10 14:09:04;;;;;;;84.57;7.45;;;;;;;;;;5040932;28;20101;-54
2021/03/10 14:11:31;;;;;;;75.82;7.78;;;;;;;;;;5039997;28;20065;-53
2021/03/10 14:13:58;;;;;;;68.22;6.32;;;;;;;;;;5015208;28;20025;-53
2021/03/10 14:16:25;;;;;;;67.47;6.88;;;;;;;;;;5044172;28;20025;-54
2021/03/10 14:18:53;;;;;;;61.80;6.95;;;;;;;;;;5034106;28;20045;-53
2021/03/10 14:21:20;;;;;;;76.63;7.22;;;;;;;;;;5040055;28;20064;-60
2021/03/10 14:23:47;;;;;;;70.30;8.43;;;;;;;;;;5034201;28;20075;-59
2021/03/10 14:26:14;;;;;;;87.82;8.23;;;;;;;;;;5044181;28;20048;-58
2021/03/10 14:28:41;;;;;;;108.28;9.23;;;;;;;;;;5047216;28;20081;-51
2021/03/10 14:31:08;;;;;;;103.05;10.55;;;;;;;;;;5045140;28;20024;-52
2021/03/10 14:33:35;;;;;;;95.85;9.48;;;;;;;;;;5032009;28;20045;-47
2021/03/10 14:36:02;;;;;;;77.95;8.60;;;;;;;;;;5032582;28;20018;-48
2021/03/10 14:38:29;;;;;;;61.33;7.22;;;;;;;;;;5032579;28;20381;-55